createdAt,value
2019-02-23T00:00:13.201Z,13.83
2019-02-23T00:02:41.555Z,12.20
2019-02-23T00:05:09.823Z,12.97
2019-02-23T00:07:38.100Z,13.03
2019-02-23T00:10:07.597Z,12.33
2019-02-23T00:12:35.915Z,13.43
2019-02-23T00:15:05.878Z,13.77
2019-02-23T00:17:34.186Z,14.20
2019-02-23T00:20:02.456Z,12.87
2019-02-23T00:22:30.747Z,13.43
2019-02-23T00:24:59.023Z,13.40
2019-02-23T00:27:27.386Z,15.97
2019-02-23T00:29:55.645Z,12.83
2019-02-23T00:32:23.930Z,15.27
2019-02-23T00:34:52.192Z,14.90
2019-02-23T00:37:20.488Z,16.57
2019-02-23T00:39:48.816Z,14.70
2019-02-23T00:42:17.138Z,15.37
2019-02-23T00:44:45.460Z,16.23
2019-02-23T00:47:13.722Z,16.13
2019-02-23T00:49:42.007Z,15.90
2019-02-23T00:52:10.271Z,15.83
2019-02-23T00:54:38.556Z,16.33
2019-02-23T00:57:06.815Z,16.30
2019-02-23T00:59:35.091Z,16.13
2019-02-23T01:02:03.358Z,16.43
2019-02-23T01:04:31.721Z,16.97
2019-02-23T01:07:00.001Z,15.97
2019-02-23T01:09:28.388Z,16.20
2019-02-23T01:11:56.669Z,17.73
2019-02-23T01:14:24.945Z,17.20
2019-02-23T01:16:53.225Z,18.37
2019-02-23T01:19:21.476Z,16.30
2019-02-23T01:21:49.760Z,17.97
2019-02-23T01:24:18.131Z,17.93
2019-02-23T01:26:46.416Z,16.87
2019-02-23T01:29:14.701Z,18.07
2019-02-23T01:31:42.965Z,17.00
2019-02-23T01:34:11.327Z,18.90
2019-02-23T01:36:39.653Z,17.47
2019-02-23T01:39:07.907Z,17.83
2019-02-23T01:41:36.214Z,16.13
2019-02-23T01:44:04.527Z,16.73
2019-02-23T01:46:32.815Z,16.97
2019-02-23T01:49:01.068Z,16.10
2019-02-23T01:51:29.387Z,16.37
2019-02-23T01:53:57.733Z,15.40
2019-02-23T01:56:26.013Z,16.60
2019-02-23T01:58:54.296Z,14.63
2019-02-23T02:01:22.631Z,16.87
2019-02-23T02:03:50.958Z,14.63
2019-02-23T02:06:19.252Z,14.17
2019-02-23T02:08:47.522Z,16.53
2019-02-23T02:11:15.972Z,16.20
2019-02-23T02:13:44.252Z,17.07
2019-02-23T02:16:12.615Z,16.67
2019-02-23T02:18:40.897Z,16.60
2019-02-23T02:21:09.235Z,18.10
2019-02-23T02:23:37.515Z,17.63
2019-02-23T02:26:05.770Z,15.57
2019-02-23T02:28:34.077Z,16.80
2019-02-23T02:31:02.491Z,14.07
2019-02-23T02:33:30.762Z,15.60
2019-02-23T02:35:59.012Z,15.43
2019-02-23T02:38:27.286Z,15.60
2019-02-23T02:40:55.541Z,15.63
2019-02-23T02:43:23.826Z,14.97
2019-02-23T02:45:52.091Z,14.73
2019-02-23T02:48:20.362Z,15.03
2019-02-23T02:50:48.605Z,14.80
2019-02-23T02:53:16.910Z,13.43
2019-02-23T02:55:45.162Z,14.27
2019-02-23T02:58:13.457Z,14.60
2019-02-23T03:00:41.712Z,15.57
2019-02-23T03:03:10.057Z,15.07
2019-02-23T03:05:38.341Z,16.20
2019-02-23T03:08:06.602Z,13.87
2019-02-23T03:10:34.876Z,14.63
2019-02-23T03:13:03.177Z,20.20
2019-02-23T03:15:31.438Z,15.43
2019-02-23T03:17:59.710Z,15.00
2019-02-23T03:20:36.232Z,16.50
2019-02-23T03:22:57.993Z,14.77
2019-02-23T03:25:26.353Z,19.23
2019-02-23T03:27:54.615Z,16.57
2019-02-23T03:30:22.891Z,16.67
2019-02-23T03:32:51.144Z,17.13
2019-02-23T03:35:19.438Z,15.53
2019-02-23T03:37:47.695Z,20.30
2019-02-23T03:40:15.972Z,16.03
2019-02-23T03:42:44.292Z,14.70
2019-02-23T03:45:12.595Z,15.57
2019-02-23T03:47:40.852Z,16.40
2019-02-23T03:50:09.137Z,15.77
2019-02-23T03:52:37.404Z,14.87
2019-02-23T03:55:05.779Z,15.73
2019-02-23T03:57:34.103Z,15.43
2019-02-23T04:00:02.450Z,13.23
2019-02-23T04:02:30.723Z,12.30
2019-02-23T04:04:59.001Z,13.70
2019-02-23T04:07:27.254Z,12.43
2019-02-23T04:09:55.509Z,15.50
2019-02-23T04:12:23.865Z,13.07
2019-02-23T04:14:52.122Z,13.40
2019-02-23T04:17:20.397Z,15.23
2019-02-23T04:19:48.638Z,14.17
2019-02-23T04:22:16.934Z,13.10
2019-02-23T04:24:45.193Z,13.87
2019-02-23T04:27:13.474Z,12.90
2019-02-23T04:29:41.752Z,15.93
2019-02-23T04:32:10.040Z,13.23
2019-02-23T04:34:38.313Z,15.50
2019-02-23T04:37:06.661Z,13.60
2019-02-23T04:39:34.918Z,11.73
2019-02-23T04:42:03.197Z,13.63
2019-02-23T04:44:31.451Z,11.73
2019-02-23T04:46:59.732Z,12.30
2019-02-23T04:49:27.989Z,14.53
2019-02-23T04:51:56.228Z,13.63
2019-02-23T04:54:24.508Z,13.67
2019-02-23T04:56:52.788Z,12.00
2019-02-23T04:59:21.061Z,11.77
2019-02-23T05:01:49.358Z,10.53
2019-02-23T05:04:17.606Z,10.70
2019-02-23T05:06:45.892Z,12.30
2019-02-23T05:09:14.140Z,14.87
2019-02-23T05:11:42.430Z,11.27
2019-02-23T05:14:10.700Z,15.07
2019-02-23T05:16:39.058Z,12.90
2019-02-23T05:19:07.328Z,12.10
2019-02-23T05:21:35.605Z,12.93
2019-02-23T05:24:03.885Z,13.30
2019-02-23T05:26:32.146Z,11.30
2019-02-23T05:29:00.444Z,12.60
2019-02-23T05:31:28.715Z,13.33
2019-02-23T05:33:56.961Z,15.33
2019-02-23T05:36:25.247Z,12.23
2019-02-23T05:38:53.511Z,12.83
2019-02-23T05:41:21.775Z,13.30
2019-02-23T05:43:50.081Z,15.23
2019-02-23T05:46:18.426Z,13.37
2019-02-23T05:48:46.711Z,14.23
2019-02-23T05:51:14.996Z,12.40
2019-02-23T05:53:43.277Z,14.70
2019-02-23T05:56:15.976Z,13.90
2019-02-23T05:58:41.639Z,11.13
2019-02-23T06:01:09.929Z,14.47
2019-02-23T06:03:38.232Z,13.37
2019-02-23T06:06:06.485Z,12.60
2019-02-23T06:08:34.753Z,15.20
2019-02-23T06:11:03.052Z,15.77
2019-02-23T06:13:31.395Z,14.40
2019-02-23T06:15:59.661Z,17.03
2019-02-23T06:18:27.962Z,13.80
2019-02-23T06:20:56.296Z,15.17
2019-02-23T06:23:24.556Z,15.27
2019-02-23T06:25:52.835Z,14.13
2019-02-23T06:28:21.085Z,17.60
2019-02-23T06:30:49.463Z,16.33
2019-02-23T06:33:17.730Z,15.23
2019-02-23T06:35:46.015Z,13.57
2019-02-23T06:38:14.262Z,14.80
2019-02-23T06:40:42.542Z,12.00
2019-02-23T06:43:10.806Z,13.43
2019-02-23T06:45:39.087Z,15.57
2019-02-23T06:48:07.480Z,14.77
2019-02-23T06:50:35.766Z,14.47
2019-02-23T06:53:04.036Z,12.77
2019-02-23T06:55:32.328Z,16.80
2019-02-23T06:58:00.662Z,13.70
2019-02-23T07:00:28.931Z,16.53
2019-02-23T07:02:57.202Z,12.70
2019-02-23T07:05:25.501Z,12.70
2019-02-23T07:07:53.763Z,14.97
2019-02-23T07:10:22.030Z,14.83
2019-02-23T07:12:50.326Z,18.60
2019-02-23T07:15:18.590Z,25.17
2019-02-23T07:17:46.897Z,22.37
2019-02-23T07:20:15.151Z,23.33
2019-02-23T07:22:43.424Z,23.40
2019-02-23T07:25:11.681Z,17.63
2019-02-23T07:27:39.970Z,17.00
2019-02-23T07:30:11.493Z,16.30
2019-02-23T07:32:39.758Z,17.13
2019-02-23T07:35:08.466Z,14.23
2019-02-23T07:37:36.750Z,15.50
2019-02-23T07:40:08.266Z,15.07
2019-02-23T07:42:36.550Z,15.93
2019-02-23T07:45:05.956Z,15.03
2019-02-23T07:47:34.251Z,14.40
2019-02-23T07:50:02.520Z,15.37
2019-02-23T07:52:30.887Z,13.87
2019-02-23T07:54:59.146Z,19.30
2019-02-23T07:57:27.896Z,21.03
2019-02-23T07:59:56.159Z,18.90
2019-02-23T08:02:25.885Z,16.03
2019-02-23T08:04:54.295Z,19.50
2019-02-23T08:07:22.557Z,15.97
2019-02-23T08:09:50.921Z,17.17
2019-02-23T08:12:19.171Z,17.50
2019-02-23T08:14:47.452Z,18.47
2019-02-23T08:17:15.725Z,22.20
2019-02-23T08:19:44.022Z,18.40
2019-02-23T08:22:12.288Z,21.93
2019-02-23T08:24:40.652Z,26.40
2019-02-23T08:27:08.966Z,18.63
2019-02-23T08:29:37.271Z,23.13
2019-02-23T08:32:05.521Z,19.33
2019-02-23T08:34:33.810Z,20.57
2019-02-23T08:37:02.082Z,21.63
2019-02-23T08:39:30.391Z,23.13
2019-02-23T08:41:58.646Z,24.10
2019-02-23T08:44:26.940Z,24.97
2019-02-23T08:46:55.297Z,26.27
2019-02-23T08:49:23.599Z,23.63
2019-02-23T08:51:51.906Z,24.87
2019-02-23T08:54:20.200Z,23.57
2019-02-23T08:56:48.482Z,26.03
2019-02-23T08:59:16.777Z,25.37
2019-02-23T09:01:45.032Z,24.23
2019-02-23T09:04:13.332Z,23.87
2019-02-23T09:06:41.607Z,24.60
2019-02-23T09:09:09.919Z,22.27
2019-02-23T09:11:38.508Z,22.43
2019-02-23T09:14:06.770Z,25.03
2019-02-23T09:16:35.084Z,24.43
2019-02-23T09:19:03.344Z,21.40
2019-02-23T09:21:31.736Z,21.17
2019-02-23T09:24:00.126Z,20.33
2019-02-23T09:26:28.462Z,22.30
2019-02-23T09:28:56.787Z,20.60
2019-02-23T09:31:25.098Z,24.03
2019-02-23T09:33:53.415Z,22.10
2019-02-23T09:36:21.697Z,18.40
2019-02-23T09:38:49.972Z,22.60
2019-02-23T09:41:18.408Z,19.13
2019-02-23T09:43:46.740Z,19.70
2019-02-23T09:46:15.011Z,16.83
2019-02-23T09:48:43.316Z,19.37
2019-02-23T09:51:11.585Z,20.17
2019-02-23T09:53:39.885Z,21.77
2019-02-23T09:56:08.161Z,19.67
2019-02-23T09:58:36.437Z,16.77
2019-02-23T10:01:04.681Z,15.07
2019-02-23T10:03:32.986Z,17.93
2019-02-23T10:06:01.251Z,16.50
2019-02-23T10:08:29.617Z,14.57
2019-02-23T10:10:57.888Z,14.73
2019-02-23T10:13:26.199Z,14.23
2019-02-23T10:15:54.446Z,6.77
2019-02-23T10:18:22.752Z,7.77
2019-02-23T10:20:51.077Z,5.80
2019-02-23T10:23:22.127Z,6.10
2019-02-23T10:25:49.360Z,5.63
2019-02-23T10:28:17.709Z,5.27
2019-02-23T10:30:46.012Z,7.77
2019-02-23T10:33:14.368Z,6.20
2019-02-23T10:35:42.663Z,5.70
2019-02-23T10:38:11.004Z,6.23
2019-02-23T10:40:39.267Z,5.67
2019-02-23T10:43:07.554Z,6.00
2019-02-23T10:45:35.941Z,6.70
2019-02-23T10:48:04.197Z,5.00
2019-02-23T10:50:32.562Z,6.83
2019-02-23T10:53:00.833Z,6.47
2019-02-23T10:55:29.129Z,6.50
2019-02-23T10:57:57.490Z,5.60
2019-02-23T11:00:26.062Z,5.03
2019-02-23T11:02:54.319Z,5.20
2019-02-23T11:05:22.752Z,5.83
2019-02-23T11:07:51.053Z,4.70
2019-02-23T11:10:19.402Z,7.00
2019-02-23T11:12:47.996Z,4.73
2019-02-23T11:15:17.960Z,4.87
2019-02-23T11:17:46.250Z,5.57
2019-02-23T11:20:15.172Z,5.90
2019-02-23T11:22:43.451Z,5.37
2019-02-23T11:25:11.993Z,5.57
2019-02-23T11:27:40.366Z,5.17
2019-02-23T11:30:15.649Z,5.20
2019-02-23T11:32:43.961Z,6.50
2019-02-23T11:35:13.252Z,5.93
2019-02-23T11:37:41.521Z,5.62
2019-02-23T11:40:11.331Z,5.78
2019-02-23T11:42:39.650Z,6.10
2019-02-23T11:45:09.236Z,5.10
2019-02-23T11:47:37.517Z,4.47
2019-02-23T11:50:10.931Z,4.23
2019-02-23T11:52:39.576Z,4.60
2019-02-23T11:55:07.908Z,6.43
2019-02-23T11:57:36.205Z,5.63
2019-02-23T12:00:09.584Z,6.53
2019-02-23T12:02:37.879Z,6.20
2019-02-23T12:05:06.657Z,14.20
2019-02-23T12:07:34.954Z,4.05
2019-02-23T12:10:03.449Z,4.22
2019-02-23T12:12:31.751Z,4.17
2019-02-23T12:15:00.028Z,3.80
2019-02-23T12:17:28.315Z,3.87
2019-02-23T12:19:56.589Z,7.70
2019-02-23T12:22:24.890Z,3.70
2019-02-23T12:24:53.161Z,3.60
2019-02-23T12:27:21.445Z,5.57
2019-02-23T12:29:49.719Z,4.30
2019-02-23T12:32:18.016Z,5.22
2019-02-23T12:34:46.280Z,3.95
2019-02-23T12:37:14.570Z,4.42
2019-02-23T12:39:42.862Z,4.65
2019-02-23T12:42:11.124Z,3.72
2019-02-23T12:44:39.410Z,3.22
2019-02-23T12:47:07.651Z,2.98
2019-02-23T12:49:35.947Z,3.83
2019-02-23T12:52:04.200Z,4.97
2019-02-23T12:54:32.507Z,6.78
2019-02-23T12:57:00.836Z,4.25
2019-02-23T12:59:29.217Z,3.83
2019-02-23T13:01:57.489Z,3.40
2019-02-23T13:04:25.799Z,3.20
2019-02-23T13:06:54.045Z,3.22
2019-02-23T13:09:25.127Z,3.27
2019-02-23T13:12:05.241Z,3.72
2019-02-23T13:14:45.854Z,4.90
2019-02-23T13:17:23.211Z,5.22
2019-02-23T13:20:10.917Z,5.08
2019-02-23T13:23:01.451Z,4.40
2019-02-23T13:25:55.370Z,3.90
2019-02-23T13:28:35.746Z,5.53
2019-02-23T13:31:10.067Z,3.72
2019-02-23T13:34:02.630Z,4.45
2019-02-23T13:36:34.179Z,4.28
2019-02-23T13:39:26.421Z,4.15
2019-02-23T13:42:05.669Z,4.03
2019-02-23T13:44:52.856Z,5.28
2019-02-23T13:47:27.386Z,3.77
2019-02-23T13:50:15.139Z,4.12
2019-02-23T13:53:04.530Z,4.25
2019-02-23T13:55:36.089Z,4.22
2019-02-23T13:58:07.589Z,4.53
2019-02-23T14:00:44.669Z,4.53
2019-02-23T14:03:36.533Z,4.72
2019-02-23T14:06:34.089Z,4.30
2019-02-23T14:09:20.596Z,4.78
2019-02-23T14:12:23.397Z,5.25
2019-02-23T14:15:15.831Z,4.90
2019-02-23T14:18:07.939Z,4.37
2019-02-23T14:20:57.404Z,6.25
2019-02-23T14:23:43.970Z,4.47
2019-02-23T14:26:27.491Z,4.40
2019-02-23T14:29:13.656Z,4.42
2019-02-23T14:32:00.312Z,3.85
2019-02-23T14:34:31.921Z,4.53
2019-02-23T14:37:15.118Z,4.25
2019-02-23T14:40:19.703Z,5.58
2019-02-23T14:43:03.282Z,4.92
2019-02-23T14:45:34.868Z,4.55
2019-02-23T14:48:36.301Z,4.47
2019-02-23T14:51:13.506Z,5.17
2019-02-23T14:54:01.367Z,4.80
2019-02-23T14:56:32.931Z,4.75
2019-02-23T14:59:16.161Z,5.25
2019-02-23T15:02:05.724Z,3.70
2019-02-23T15:04:43.188Z,3.65
2019-02-23T15:07:23.220Z,3.45
2019-02-23T15:10:26.131Z,3.85
2019-02-23T15:13:06.105Z,4.75
2019-02-23T15:15:40.219Z,3.02
2019-02-23T15:18:29.445Z,4.17
2019-02-23T15:21:24.832Z,3.12
2019-02-23T15:24:08.125Z,7.67
2019-02-23T15:26:57.594Z,4.60
2019-02-23T15:29:46.501Z,3.83
2019-02-23T15:32:34.369Z,3.17
2019-02-23T15:35:14.461Z,4.93
2019-02-23T15:38:17.352Z,5.50
2019-02-23T15:41:05.224Z,7.57
2019-02-23T15:43:36.807Z,4.27
2019-02-23T15:46:11.034Z,4.77
2019-02-23T15:49:15.490Z,5.03
2019-02-23T15:51:43.855Z,5.83
2019-02-23T15:54:12.137Z,4.03
2019-02-23T15:56:40.497Z,4.53
2019-02-23T15:59:08.730Z,5.40
2019-02-23T16:01:37.030Z,5.60
2019-02-23T16:04:05.296Z,6.67
2019-02-23T16:06:33.590Z,7.03
2019-02-23T16:09:01.857Z,7.10
2019-02-23T16:11:30.146Z,6.77
2019-02-23T16:13:58.492Z,5.37
2019-02-23T16:16:26.814Z,8.10
2019-02-23T16:18:55.071Z,7.83
2019-02-23T16:21:23.369Z,6.97
2019-02-23T16:23:51.658Z,7.10
2019-02-23T16:26:19.967Z,6.30
2019-02-23T16:28:48.319Z,6.87
2019-02-23T16:31:16.629Z,8.33
2019-02-23T16:33:44.891Z,8.03
2019-02-23T16:36:13.242Z,7.20
2019-02-23T16:38:41.483Z,7.00
2019-02-23T16:41:09.757Z,6.87
2019-02-23T16:43:38.069Z,11.70
2019-02-23T16:46:06.400Z,8.10
2019-02-23T16:48:34.751Z,6.30
2019-02-23T16:51:03.010Z,8.13
2019-02-23T16:53:31.296Z,7.60
2019-02-23T16:55:59.618Z,9.50
2019-02-23T16:58:27.920Z,6.67
2019-02-23T17:00:56.177Z,7.73
2019-02-23T17:03:24.449Z,9.23
2019-02-23T17:05:52.728Z,7.93
2019-02-23T17:08:21.065Z,7.80
2019-02-23T17:10:49.323Z,8.57
2019-02-23T17:13:17.627Z,14.00
2019-02-23T17:15:45.986Z,12.07
2019-02-23T17:18:14.276Z,9.37
2019-02-23T17:20:42.675Z,14.33
2019-02-23T17:23:10.987Z,12.40
2019-02-23T17:25:39.265Z,13.23
2019-02-23T17:28:07.518Z,12.60
2019-02-23T17:30:36.077Z,13.63
2019-02-23T17:33:04.366Z,13.53
2019-02-23T17:35:32.625Z,12.53
2019-02-23T17:38:00.896Z,11.83
2019-02-23T17:40:29.199Z,12.63
2019-02-23T17:42:57.471Z,14.37
2019-02-23T17:45:25.772Z,19.63
2019-02-23T17:47:54.103Z,18.70
2019-02-23T17:50:22.394Z,17.23
2019-02-23T17:52:50.690Z,29.17
2019-02-23T17:55:19.032Z,18.47
2019-02-23T17:57:47.363Z,16.43
2019-02-23T18:00:17.304Z,15.53
2019-02-23T18:02:45.569Z,17.53
2019-02-23T18:05:13.866Z,15.27
2019-02-23T18:07:42.137Z,17.23
2019-02-23T18:10:10.505Z,19.50
2019-02-23T18:12:38.774Z,35.03
2019-02-23T18:15:09.007Z,30.93
2019-02-23T18:17:37.268Z,30.33
2019-02-23T18:20:13.222Z,22.67
2019-02-23T18:22:41.559Z,20.17
2019-02-23T18:25:09.910Z,17.40
2019-02-23T18:27:38.194Z,25.33
2019-02-23T18:30:13.281Z,23.77
2019-02-23T18:32:40.574Z,27.43
2019-02-23T18:35:09.149Z,25.07
2019-02-23T18:37:37.438Z,20.83
2019-02-23T18:40:07.444Z,19.20
2019-02-23T18:42:35.731Z,20.40
2019-02-23T18:45:05.426Z,18.73
2019-02-23T18:47:33.725Z,17.83
2019-02-23T18:50:01.988Z,18.50
2019-02-23T18:52:30.278Z,15.70
2019-02-23T18:54:58.564Z,12.77
2019-02-23T18:57:26.936Z,14.37
2019-02-23T18:59:55.196Z,13.43
2019-02-23T19:02:23.509Z,16.40
2019-02-23T19:04:51.764Z,17.73
2019-02-23T19:07:20.071Z,14.73
2019-02-23T19:09:48.342Z,16.23
2019-02-23T19:12:16.705Z,17.00
2019-02-23T19:14:44.985Z,16.67
2019-02-23T19:17:13.300Z,15.07
2019-02-23T19:19:41.619Z,14.90
2019-02-23T19:22:09.911Z,15.23
2019-02-23T19:24:38.175Z,15.40
2019-02-23T19:27:06.517Z,15.10
2019-02-23T19:29:34.767Z,14.90
2019-02-23T19:32:03.059Z,15.53
2019-02-23T19:34:31.335Z,14.20
2019-02-23T19:36:59.694Z,12.77
2019-02-23T19:39:27.957Z,14.47
2019-02-23T19:41:56.279Z,13.13
2019-02-23T19:44:24.546Z,14.80
2019-02-23T19:46:53.864Z,13.97
2019-02-23T19:49:22.181Z,15.17
2019-02-23T19:51:50.459Z,18.57
2019-02-23T19:54:19.654Z,16.13
2019-02-23T19:56:47.907Z,17.23
2019-02-23T19:59:16.194Z,17.83
2019-02-23T20:01:44.466Z,18.57
2019-02-23T20:04:12.821Z,19.67
2019-02-23T20:06:41.090Z,17.27
2019-02-23T20:09:09.375Z,18.80
2019-02-23T20:11:37.665Z,18.23
2019-02-23T20:14:05.995Z,22.70
2019-02-23T20:16:34.322Z,18.27
2019-02-23T20:19:02.620Z,20.00
2019-02-23T20:21:30.961Z,22.50
2019-02-23T20:23:59.331Z,20.20
2019-02-23T20:26:27.685Z,22.00
2019-02-23T20:28:56.001Z,19.37
2019-02-23T20:31:24.317Z,17.53
2019-02-23T20:33:52.686Z,16.20
2019-02-23T20:36:20.983Z,20.27
2019-02-23T20:38:49.290Z,20.23
2019-02-23T20:41:17.544Z,22.43
2019-02-23T20:43:45.900Z,20.53
2019-02-23T20:46:14.202Z,16.27
2019-02-23T20:48:42.543Z,16.63
2019-02-23T20:51:10.919Z,15.60
2019-02-23T20:53:39.277Z,17.13
2019-02-23T20:56:07.645Z,18.23
2019-02-23T20:58:35.910Z,17.97
2019-02-23T21:01:04.216Z,19.77
2019-02-23T21:03:32.551Z,21.17
2019-02-23T21:06:00.847Z,17.43
2019-02-23T21:08:29.196Z,19.33
2019-02-23T21:10:57.555Z,18.67
2019-02-23T21:13:25.830Z,18.63
2019-02-23T21:15:54.131Z,20.90
2019-02-23T21:18:22.413Z,22.07
2019-02-23T21:20:51.661Z,24.53
2019-02-23T21:23:20.064Z,22.80
2019-02-23T21:25:48.373Z,20.23
2019-02-23T21:28:16.641Z,19.33
2019-02-23T21:30:45.020Z,18.77
2019-02-23T21:33:13.347Z,20.43
2019-02-23T21:35:41.620Z,27.93
2019-02-23T21:38:09.885Z,24.63
2019-02-23T21:40:38.171Z,24.70
2019-02-23T21:43:06.451Z,20.00
2019-02-23T21:45:34.722Z,20.90
2019-02-23T21:48:03.005Z,19.00
2019-02-23T21:50:31.272Z,24.40
2019-02-23T21:52:59.595Z,24.70
2019-02-23T21:55:27.933Z,23.70
2019-02-23T21:57:56.297Z,26.23
2019-02-23T22:00:24.566Z,29.43
2019-02-23T22:02:52.848Z,20.67
2019-02-23T22:05:21.114Z,18.87
2019-02-23T22:07:49.418Z,17.33
2019-02-23T22:10:17.766Z,20.13
2019-02-23T22:12:46.065Z,19.00
2019-02-23T22:15:14.400Z,18.93
2019-02-23T22:17:42.801Z,19.87
2019-02-23T22:20:11.548Z,21.37
2019-02-23T22:22:39.830Z,21.90
2019-02-23T22:25:08.105Z,24.27
2019-02-23T22:27:36.398Z,20.00
2019-02-23T22:30:05.727Z,21.10
2019-02-23T22:32:34.100Z,24.27
2019-02-23T22:35:02.393Z,22.87
2019-02-23T22:37:30.704Z,20.57
2019-02-23T22:39:59.043Z,21.60
2019-02-23T22:42:27.312Z,18.23
2019-02-23T22:44:55.606Z,26.03
2019-02-23T22:47:23.878Z,23.00
2019-02-23T22:49:52.177Z,23.00
2019-02-23T22:52:20.459Z,20.67
2019-02-23T22:54:48.807Z,25.80
2019-02-23T22:57:17.080Z,35.27
2019-02-23T22:59:45.387Z,40.10
2019-02-23T23:02:13.656Z,23.07
2019-02-23T23:04:42.003Z,18.37
2019-02-23T23:07:10.264Z,20.80
2019-02-23T23:09:38.565Z,23.33
2019-02-23T23:12:06.828Z,19.63
2019-02-23T23:14:35.113Z,26.03
2019-02-23T23:17:03.444Z,22.67
2019-02-23T23:19:31.728Z,26.67
2019-02-23T23:22:00.021Z,27.20
2019-02-23T23:24:28.368Z,36.87
2019-02-23T23:26:56.637Z,24.80
2019-02-23T23:29:24.921Z,22.93
2019-02-23T23:31:53.234Z,21.00
2019-02-23T23:34:21.582Z,19.00
2019-02-23T23:36:49.848Z,17.73
2019-02-23T23:39:18.133Z,22.20
2019-02-23T23:41:46.392Z,23.93
2019-02-23T23:44:14.644Z,23.37
2019-02-23T23:46:42.930Z,23.70
2019-02-23T23:49:11.202Z,25.50
2019-02-23T23:51:39.556Z,23.50
2019-02-23T23:54:07.823Z,19.67
2019-02-23T23:56:36.113Z,21.37
2019-02-23T23:59:04.361Z,20.90
